Wetterdaten: Woche 29.08.11 - 04.09.11 (KW35)
Datum Zeit Temperatur Luftfeuchte Luftdruck Niederschlag Windrichtung Sonnenschein Solar Wind
29.08.2011 00:00 10,3 C 92 % 1016,6 hPa 0,0 l/m N 0,00 h 0 W/m 0,8 km/h (0 Bft)
29.08.2011 01:00 10,3 C 91 % 1016,5 hPa 0,0 l/m N 0,00 h 0 W/m 0,1 km/h (0 Bft)
29.08.2011 02:00 9,7 C 93 % 1016,3 hPa 0,0 l/m N 0,00 h 0 W/m 1,1 km/h (0 Bft)
29.08.2011 03:00 9,1 C 95 % 1015,9 hPa 0,0 l/m W 0,00 h 0 W/m 0,7 km/h (0 Bft)
29.08.2011 04:00 8,9 C 95 % 1016,0 hPa 0,0 l/m N 0,00 h 0 W/m 0,8 km/h (0 Bft)
29.08.2011 05:00 8,6 C 96 % 1015,5 hPa 0,0 l/m N 0,00 h 0 W/m 0,0 km/h (0 Bft)
29.08.2011 06:00 8,2 C 96 % 1015,5 hPa 0,0 l/m N 0,08 h 11 W/m 0,0 km/h (0 Bft)
29.08.2011 07:00 9,1 C 96 % 1015,4 hPa 0,0 l/m N 0,42 h 77 W/m 0,0 km/h (0 Bft)
29.08.2011 08:00 11,7 C 89 % 1015,7 hPa 0,0 l/m N 0,92 h 243 W/m 0,0 km/h (0 Bft)
29.08.2011 09:00 14,6 C 82 % 1015,7 hPa 0,0 l/m N 1,00 h 404 W/m 0,0 km/h (0 Bft)
29.08.2011 10:00 16,6 C 70 % 1015,6 hPa 0,0 l/m W-NW 0,92 h 551 W/m 9,0 km/h (2 Bft)
29.08.2011 11:00 17,7 C 64 % 1015,5 hPa 0,0 l/m W 0,67 h 560 W/m 12,5 km/h (3 Bft)
29.08.2011 12:00 19,7 C 59 % 1015,3 hPa 0,0 l/m W-SW 0,92 h 890 W/m 13,0 km/h (3 Bft)
29.08.2011 13:00 19,6 C 58 % 1014,8 hPa 0,0 l/m W-NW 0,58 h 647 W/m 12,1 km/h (2 Bft)
29.08.2011 14:00 20,4 C 53 % 1014,4 hPa 0,0 l/m NW 0,42 h 488 W/m 11,0 km/h (2 Bft)
29.08.2011 15:00 20,5 C 54 % 1014,4 hPa 0,0 l/m W 0,42 h 485 W/m 7,5 km/h (2 Bft)
29.08.2011 16:00 20,3 C 56 % 1014,1 hPa 0,0 l/m W 0,50 h 419 W/m 9,8 km/h (2 Bft)
29.08.2011 17:00 20,1 C 57 % 1013,8 hPa 0,0 l/m W 0,33 h 218 W/m 10,1 km/h (2 Bft)
29.08.2011 18:00 19,0 C 61 % 1013,8 hPa 0,0 l/m W-SW 0,08 h 77 W/m 3,6 km/h (1 Bft)
29.08.2011 19:00 17,8 C 61 % 1014,2 hPa 0,0 l/m N-NO 0,17 h 17 W/m 5,0 km/h (1 Bft)
29.08.2011 20:00 16,0 C 66 % 1014,8 hPa 0,0 l/m N-NO 0,00 h 7 W/m 6,0 km/h (2 Bft)
29.08.2011 21:00 14,7 C 69 % 1015,7 hPa 0,0 l/m N-NO 0,00 h 0 W/m 8,7 km/h (2 Bft)
29.08.2011 22:00 13,2 C 76 % 1016,2 hPa 0,0 l/m N 0,00 h 0 W/m 2,4 km/h (1 Bft)
29.08.2011 23:00 12,2 C 83 % 1016,3 hPa 0,0 l/m N 0,00 h 0 W/m 0,7 km/h (0 Bft)
30.08.2011 00:00 11,5 C 87 % 1016,1 hPa 0,0 l/m N 0,00 h 0 W/m 0,9 km/h (0 Bft)
30.08.2011 01:00 11,1 C 89 % 1015,8 hPa 0,0 l/m N 0,00 h 0 W/m 0,3 km/h (0 Bft)
30.08.2011 02:00 10,7 C 91 % 1015,3 hPa 0,0 l/m N 0,00 h 0 W/m 0,9 km/h (0 Bft)
30.08.2011 03:00 10,9 C 91 % 1014,9 hPa 0,0 l/m N 0,00 h 0 W/m 0,4 km/h (0 Bft)
30.08.2011 04:00 11,4 C 88 % 1014,8 hPa 0,0 l/m N-NO 0,00 h 0 W/m 2,0 km/h (1 Bft)
30.08.2011 05:00 11,5 C 89 % 1014,6 hPa 0,0 l/m N-NO 0,00 h 0 W/m 3,2 km/h (1 Bft)
30.08.2011 06:00 10,8 C 92 % 1014,5 hPa 0,0 l/m N 0,00 h 7 W/m 4,9 km/h (1 Bft)
30.08.2011 07:00 10,9 C 91 % 1014,5 hPa 0,0 l/m N 0,08 h 40 W/m 1,5 km/h (1 Bft)
30.08.2011 08:00 12,9 C 81 % 1014,5 hPa 0,0 l/m N-NW 1,00 h 243 W/m 5,3 km/h (1 Bft)
30.08.2011 09:00 14,6 C 72 % 1014,6 hPa 0,0 l/m N-NO 0,92 h 385 W/m 8,2 km/h (2 Bft)
30.08.2011 10:00 16,0 C 66 % 1014,6 hPa 0,0 l/m NO 1,00 h 579 W/m 8,7 km/h (2 Bft)
30.08.2011 11:00 17,2 C 60 % 1014,6 hPa 0,0 l/m SO 0,75 h 595 W/m 8,0 km/h (2 Bft)
30.08.2011 12:00 17,6 C 59 % 1014,2 hPa 0,0 l/m NO 0,50 h 587 W/m 9,3 km/h (2 Bft)
30.08.2011 13:00 18,7 C 55 % 1013,6 hPa 0,0 l/m O-SO 0,67 h 714 W/m 7,5 km/h (2 Bft)
30.08.2011 14:00 19,2 C 52 % 1013,1 hPa 0,0 l/m W-SW 0,42 h 437 W/m 7,9 km/h (2 Bft)
30.08.2011 15:00 19,5 C 51 % 1012,7 hPa 0,0 l/m N 0,67 h 612 W/m 6,4 km/h (2 Bft)
30.08.2011 16:00 20,3 C 49 % 1012,2 hPa 0,0 l/m W 0,67 h 530 W/m 6,7 km/h (2 Bft)
30.08.2011 17:00 20,4 C 48 % 1012,0 hPa 0,0 l/m O-SO 0,75 h 376 W/m 9,1 km/h (2 Bft)
30.08.2011 18:00 20,4 C 48 % 1011,7 hPa 0,0 l/m O-SO 1,00 h 254 W/m 7,9 km/h (2 Bft)
30.08.2011 19:00 17,9 C 58 % 1011,6 hPa 0,0 l/m O-NO 0,17 h 33 W/m 4,0 km/h (1 Bft)
30.08.2011 20:00 14,7 C 74 % 1011,9 hPa 0,0 l/m NO 0,00 h 6 W/m 2,8 km/h (1 Bft)
30.08.2011 21:00 13,6 C 79 % 1012,6 hPa 0,0 l/m N 0,00 h 0 W/m 2,5 km/h (1 Bft)
30.08.2011 22:00 12,6 C 82 % 1012,9 hPa 0,0 l/m N 0,00 h 0 W/m 4,9 km/h (1 Bft)
30.08.2011 23:00 11,9 C 82 % 1012,7 hPa 0,0 l/m N-NW 0,00 h 0 W/m 5,5 km/h (1 Bft)
31.08.2011 00:00 11,2 C 84 % 1012,6 hPa 0,0 l/m N-NW 0,00 h 0 W/m 3,7 km/h (1 Bft)
31.08.2011 01:00 10,8 C 86 % 1012,4 hPa 0,0 l/m N 0,00 h 0 W/m 3,7 km/h (1 Bft)
31.08.2011 02:00 10,3 C 87 % 1011,9 hPa 0,0 l/m N 0,00 h 0 W/m 3,3 km/h (1 Bft)
31.08.2011 03:00 10,0 C 87 % 1011,6 hPa 0,0 l/m N-NW 0,00 h 0 W/m 4,4 km/h (1 Bft)
31.08.2011 04:00 9,6 C 87 % 1011,5 hPa 0,0 l/m N 0,00 h 0 W/m 2,8 km/h (1 Bft)
31.08.2011 05:00 9,2 C 89 % 1011,4 hPa 0,0 l/m N 0,00 h 0 W/m 2,7 km/h (1 Bft)
31.08.2011 06:00 8,8 C 91 % 1011,3 hPa 0,0 l/m N 0,00 h 8 W/m 1,9 km/h (1 Bft)
31.08.2011 07:00 8,8 C 91 % 1011,5 hPa 0,0 l/m N 0,17 h 48 W/m 0,7 km/h (0 Bft)
31.08.2011 08:00 10,7 C 86 % 1011,8 hPa 0,0 l/m N-NW 0,67 h 200 W/m 2,9 km/h (1 Bft)
31.08.2011 09:00 13,1 C 80 % 1011,9 hPa 0,0 l/m N-NW 1,00 h 385 W/m 3,2 km/h (1 Bft)
31.08.2011 10:00 15,5 C 76 % 1012,0 hPa 0,0 l/m N-NW 0,92 h 429 W/m 4,3 km/h (1 Bft)
31.08.2011 11:00 17,8 C 70 % 1012,0 hPa 0,0 l/m S 1,00 h 583 W/m 7,1 km/h (2 Bft)
31.08.2011 12:00 20,0 C 65 % 1011,7 hPa 0,0 l/m S-SO 1,00 h 686 W/m 9,8 km/h (2 Bft)
31.08.2011 13:00 21,8 C 61 % 1011,2 hPa 0,0 l/m S 1,00 h 828 W/m 13,3 km/h (3 Bft)
31.08.2011 14:00 22,6 C 53 % 1010,9 hPa 0,0 l/m W-SW 0,83 h 696 W/m 13,3 km/h (3 Bft)
31.08.2011 15:00 23,2 C 51 % 1010,6 hPa 0,0 l/m SW 0,92 h 646 W/m 12,6 km/h (3 Bft)
31.08.2011 16:00 23,2 C 51 % 1010,4 hPa 0,0 l/m W 0,83 h 539 W/m 9,4 km/h (2 Bft)
31.08.2011 17:00 23,1 C 51 % 1010,4 hPa 0,0 l/m W 1,00 h 420 W/m 10,9 km/h (2 Bft)
31.08.2011 18:00 21,5 C 60 % 1010,4 hPa 0,0 l/m W 0,50 h 121 W/m 3,6 km/h (1 Bft)
31.08.2011 19:00 19,8 C 72 % 1010,3 hPa 0,0 l/m N 0,08 h 31 W/m 0,9 km/h (0 Bft)
31.08.2011 20:00 18,0 C 79 % 1010,5 hPa 0,0 l/m N 0,00 h 0 W/m 1,1 km/h (0 Bft)
31.08.2011 21:00 16,7 C 80 % 1011,3 hPa 0,0 l/m W 0,00 h 0 W/m 2,9 km/h (1 Bft)
31.08.2011 22:00 15,3 C 82 % 1011,4 hPa 0,0 l/m W 0,00 h 0 W/m 3,6 km/h (1 Bft)
31.08.2011 23:00 14,7 C 81 % 1011,3 hPa 0,0 l/m N 0,00 h 0 W/m 2,5 km/h (1 Bft)
01.09.2011 00:00 13,9 C 85 % 1011,4 hPa 0,0 l/m N 0,00 h 0 W/m 1,7 km/h (1 Bft)
01.09.2011 01:00 13,7 C 85 % 1011,3 hPa 0,0 l/m W-NW 0,00 h 0 W/m 3,9 km/h (1 Bft)
01.09.2011 02:00 14,0 C 81 % 1011,1 hPa 0,0 l/m NW 0,00 h 0 W/m 6,4 km/h (2 Bft)
01.09.2011 03:00 13,3 C 83 % 1011,3 hPa 0,0 l/m N-NW 0,00 h 0 W/m 2,7 km/h (1 Bft)
01.09.2011 04:00 12,6 C 88 % 1011,3 hPa 0,0 l/m N 0,00 h 0 W/m 0,0 km/h (0 Bft)
01.09.2011 05:00 12,6 C 88 % 1011,4 hPa 0,0 l/m N 0,00 h 0 W/m 0,3 km/h (0 Bft)
01.09.2011 06:00 12,5 C 89 % 1011,6 hPa 0,0 l/m N 0,00 h 5 W/m 0,7 km/h (0 Bft)
01.09.2011 07:00 12,8 C 90 % 1012,2 hPa 0,0 l/m N 0,00 h 17 W/m 2,1 km/h (1 Bft)
01.09.2011 08:00 12,8 C 93 % 1012,5 hPa 0,0 l/m N-NW 0,00 h 27 W/m 2,5 km/h (1 Bft)
01.09.2011 09:00 13,3 C 94 % 1013,1 hPa 0,2 l/m SW 0,00 h 64 W/m 7,0 km/h (2 Bft)
01.09.2011 10:00 13,9 C 94 % 1013,7 hPa 0,2 l/m S-SW 0,00 h 59 W/m 7,5 km/h (2 Bft)
01.09.2011 11:00 14,6 C 96 % 1013,8 hPa 0,2 l/m S 0,00 h 123 W/m 9,1 km/h (2 Bft)
01.09.2011 12:00 15,8 C 94 % 1013,7 hPa 0,2 l/m S-SW 0,00 h 111 W/m 8,7 km/h (2 Bft)
01.09.2011 13:00 17,3 C 91 % 1013,4 hPa 0,0 l/m S-SW 0,42 h 372 W/m 12,1 km/h (2 Bft)
01.09.2011 14:00 19,8 C 80 % 1013,2 hPa 0,0 l/m SW 0,92 h 522 W/m 12,9 km/h (3 Bft)
01.09.2011 15:00 20,6 C 75 % 1012,8 hPa 0,0 l/m SW 0,58 h 489 W/m 13,7 km/h (3 Bft)
01.09.2011 16:00 21,8 C 68 % 1012,3 hPa 0,0 l/m SW 0,92 h 509 W/m 13,3 km/h (3 Bft)
01.09.2011 17:00 22,1 C 64 % 1012,1 hPa 0,0 l/m S-SW 1,00 h 385 W/m 11,6 km/h (2 Bft)
01.09.2011 18:00 21,6 C 66 % 1011,9 hPa 0,0 l/m SW 1,00 h 228 W/m 7,6 km/h (2 Bft)
01.09.2011 19:00 18,8 C 80 % 1011,9 hPa 0,0 l/m N 0,08 h 25 W/m 0,8 km/h (0 Bft)
01.09.2011 20:00 16,5 C 88 % 1012,1 hPa 0,0 l/m N 0,00 h 5 W/m 0,7 km/h (0 Bft)
01.09.2011 21:00 15,2 C 92 % 1012,4 hPa 0,0 l/m N 0,00 h 0 W/m 0,8 km/h (0 Bft)
01.09.2011 22:00 14,6 C 94 % 1012,5 hPa 0,0 l/m N 0,00 h 0 W/m 0,0 km/h (0 Bft)
01.09.2011 23:00 14,8 C 94 % 1012,7 hPa 0,0 l/m N 0,00 h 0 W/m 0,3 km/h (0 Bft)
02.09.2011 00:00 14,8 C 95 % 1012,6 hPa 0,0 l/m N 0,00 h 0 W/m 0,0 km/h (0 Bft)
02.09.2011 01:00 14,3 C 96 % 1012,6 hPa 0,0 l/m N 0,00 h 0 W/m 0,0 km/h (0 Bft)
02.09.2011 02:00 13,5 C 97 % 1012,5 hPa 0,0 l/m N 0,00 h 0 W/m 0,3 km/h (0 Bft)
02.09.2011 03:00 13,1 C 97 % 1012,4 hPa 0,0 l/m N 0,00 h 0 W/m 0,0 km/h (0 Bft)
02.09.2011 04:00 12,7 C 98 % 1012,3 hPa 0,0 l/m N 0,00 h 0 W/m 0,0 km/h (0 Bft)
02.09.2011 05:00 13,0 C 98 % 1012,6 hPa 0,0 l/m SW 0,00 h 0 W/m 1,3 km/h (1 Bft)
02.09.2011 06:00 13,6 C 97 % 1012,9 hPa 0,0 l/m N 0,00 h 8 W/m 0,4 km/h (0 Bft)
02.09.2011 07:00 13,9 C 97 % 1013,1 hPa 0,0 l/m N 0,00 h 27 W/m 1,5 km/h (1 Bft)
02.09.2011 08:00 15,2 C 96 % 1013,2 hPa 0,0 l/m W 0,00 h 81 W/m 1,9 km/h (1 Bft)
02.09.2011 09:00 16,6 C 93 % 1013,4 hPa 0,0 l/m W-NW 0,00 h 123 W/m 3,2 km/h (1 Bft)
02.09.2011 10:00 17,1 C 93 % 1013,8 hPa 0,4 l/m W-NW 0,00 h 64 W/m 3,6 km/h (1 Bft)
02.09.2011 11:00 17,8 C 92 % 1013,9 hPa 0,0 l/m S-SW 0,00 h 184 W/m 8,3 km/h (2 Bft)
02.09.2011 12:00 19,4 C 86 % 1013,7 hPa 0,0 l/m S-SW 0,00 h 198 W/m 5,3 km/h (1 Bft)
02.09.2011 13:00 21,5 C 77 % 1013,4 hPa 0,0 l/m SW 0,58 h 641 W/m 8,9 km/h (2 Bft)
02.09.2011 14:00 22,8 C 70 % 1012,9 hPa 0,0 l/m S 0,33 h 396 W/m 10,7 km/h (2 Bft)
02.09.2011 15:00 22,8 C 72 % 1012,5 hPa 0,0 l/m SW 0,33 h 406 W/m 8,9 km/h (2 Bft)
02.09.2011 16:00 24,7 C 64 % 1012,0 hPa 0,0 l/m S-SO 0,92 h 530 W/m 8,3 km/h (2 Bft)
02.09.2011 17:00 24,6 C 64 % 1011,8 hPa 0,0 l/m S-SW 0,75 h 316 W/m 9,8 km/h (2 Bft)
02.09.2011 18:00 22,3 C 74 % 1011,8 hPa 0,0 l/m W-SW 0,00 h 30 W/m 4,5 km/h (1 Bft)
02.09.2011 19:00 20,7 C 83 % 1012,0 hPa 0,0 l/m N 0,42 h 42 W/m 0,7 km/h (0 Bft)
02.09.2011 20:00 19,5 C 87 % 1012,3 hPa 0,0 l/m N 0,00 h 8 W/m 0,5 km/h (0 Bft)
02.09.2011 21:00 17,8 C 92 % 1012,7 hPa 0,0 l/m N 0,00 h 0 W/m 1,2 km/h (1 Bft)
02.09.2011 22:00 17,0 C 95 % 1012,6 hPa 0,0 l/m N 0,00 h 0 W/m 0,7 km/h (0 Bft)
02.09.2011 23:00 16,5 C 96 % 1012,7 hPa 0,0 l/m N 0,00 h 0 W/m 2,3 km/h (1 Bft)
03.09.2011 00:00 16,0 C 97 % 1012,7 hPa 0,0 l/m N 0,00 h 0 W/m 0,4 km/h (0 Bft)
03.09.2011 01:00 15,2 C 97 % 1012,8 hPa 0,0 l/m N 0,00 h 0 W/m 0,3 km/h (0 Bft)
03.09.2011 02:00 14,8 C 98 % 1012,6 hPa 0,0 l/m N 0,00 h 0 W/m 0,0 km/h (0 Bft)
03.09.2011 03:00 14,2 C 98 % 1012,7 hPa 0,0 l/m N 0,00 h 0 W/m 0,0 km/h (0 Bft)
03.09.2011 04:00 13,7 C 98 % 1012,6 hPa 0,0 l/m N 0,00 h 0 W/m 0,3 km/h (0 Bft)
03.09.2011 05:00 13,3 C 98 % 1012,3 hPa 0,0 l/m N 0,00 h 0 W/m 0,1 km/h (0 Bft)
03.09.2011 06:00 12,9 C 98 % 1012,2 hPa 0,0 l/m N 0,00 h 7 W/m 0,0 km/h (0 Bft)
03.09.2011 07:00 13,3 C 98 % 1012,4 hPa 0,0 l/m N 0,00 h 54 W/m 0,0 km/h (0 Bft)
03.09.2011 08:00 15,7 C 95 % 1012,3 hPa 0,0 l/m W-SW 1,00 h 202 W/m 2,1 km/h (1 Bft)
03.09.2011 09:00 18,1 C 89 % 1012,1 hPa 0,0 l/m W 1,00 h 374 W/m 4,3 km/h (1 Bft)
03.09.2011 10:00 20,9 C 78 % 1012,0 hPa 0,0 l/m O 1,00 h 537 W/m 4,4 km/h (1 Bft)
03.09.2011 11:00 23,5 C 69 % 1011,7 hPa 0,0 l/m NO 1,00 h 667 W/m 9,3 km/h (2 Bft)
03.09.2011 12:00 25,4 C 62 % 1011,6 hPa 0,0 l/m O-NO 1,00 h 743 W/m 10,5 km/h (2 Bft)
03.09.2011 13:00 26,8 C 54 % 1011,3 hPa 0,0 l/m O 1,00 h 717 W/m 11,4 km/h (2 Bft)
03.09.2011 14:00 27,8 C 49 % 1010,9 hPa 0,0 l/m O-SO 1,00 h 680 W/m 11,7 km/h (2 Bft)
03.09.2011 15:00 27,9 C 48 % 1010,4 hPa 0,0 l/m O-NO 0,92 h 579 W/m 11,2 km/h (2 Bft)
03.09.2011 16:00 28,3 C 48 % 1009,7 hPa 0,0 l/m O-NO 1,00 h 518 W/m 13,2 km/h (3 Bft)
03.09.2011 17:00 27,7 C 51 % 1009,0 hPa 0,0 l/m NO 0,92 h 339 W/m 13,8 km/h (3 Bft)
03.09.2011 18:00 26,8 C 54 % 1008,7 hPa 0,0 l/m O-NO 0,58 h 147 W/m 9,7 km/h (2 Bft)
03.09.2011 19:00 24,8 C 62 % 1008,4 hPa 0,0 l/m O-NO 0,00 h 14 W/m 5,2 km/h (1 Bft)
03.09.2011 20:00 21,6 C 76 % 1008,3 hPa 0,0 l/m N 0,00 h 0 W/m 2,0 km/h (1 Bft)
03.09.2011 21:00 20,8 C 79 % 1008,7 hPa 0,0 l/m NO 0,00 h 0 W/m 3,5 km/h (1 Bft)
03.09.2011 22:00 20,6 C 80 % 1008,8 hPa 0,0 l/m N 0,00 h 0 W/m 4,9 km/h (1 Bft)
03.09.2011 23:00 19,8 C 86 % 1010,2 hPa 0,2 l/m W 0,00 h 0 W/m 9,6 km/h (2 Bft)
04.09.2011 00:00 18,9 C 89 % 1009,4 hPa 0,2 l/m N-NW 0,00 h 0 W/m 8,4 km/h (2 Bft)
04.09.2011 01:00 18,1 C 93 % 1010,0 hPa 0,2 l/m S 0,00 h 0 W/m 5,8 km/h (1 Bft)
04.09.2011 02:00 17,7 C 96 % 1009,6 hPa 0,2 l/m S-SW 0,00 h 0 W/m 1,9 km/h (1 Bft)
04.09.2011 03:00 17,2 C 97 % 1009,5 hPa 0,0 l/m N 0,00 h 0 W/m 2,3 km/h (1 Bft)
04.09.2011 04:00 16,8 C 98 % 1009,7 hPa 0,0 l/m N 0,00 h 0 W/m 1,7 km/h (1 Bft)
04.09.2011 05:00 16,9 C 98 % 1010,1 hPa 0,0 l/m N 0,00 h 0 W/m 1,7 km/h (1 Bft)
04.09.2011 06:00 17,0 C 98 % 1009,8 hPa 0,0 l/m N 0,00 h 5 W/m 1,1 km/h (0 Bft)
04.09.2011 07:00 17,1 C 99 % 1010,1 hPa 0,0 l/m N 0,00 h 22 W/m 3,3 km/h (1 Bft)
04.09.2011 08:00 17,7 C 99 % 1010,3 hPa 0,0 l/m S-SW 0,00 h 45 W/m 7,2 km/h (2 Bft)
04.09.2011 09:00 18,5 C 98 % 1010,2 hPa 0,0 l/m S-SW 0,00 h 110 W/m 11,3 km/h (2 Bft)
04.09.2011 10:00 19,8 C 94 % 1010,0 hPa 0,0 l/m SW 0,17 h 279 W/m 6,3 km/h (2 Bft)
04.09.2011 11:00 22,1 C 84 % 1009,7 hPa 0,0 l/m SW 0,58 h 407 W/m 7,6 km/h (2 Bft)
04.09.2011 12:00 23,1 C 77 % 1009,2 hPa 0,0 l/m SW 0,58 h 555 W/m 6,4 km/h (2 Bft)
04.09.2011 13:00 24,6 C 70 % 1008,6 hPa 0,0 l/m W-SW 0,75 h 583 W/m 4,4 km/h (1 Bft)
04.09.2011 14:00 24,5 C 69 % 1008,4 hPa 0,0 l/m N-NW 0,17 h 228 W/m 5,2 km/h (1 Bft)
04.09.2011 15:00 23,1 C 75 % 1008,1 hPa 0,2 l/m NW 0,00 h 92 W/m 9,7 km/h (2 Bft)
04.09.2011 16:00 21,5 C 85 % 1007,5 hPa 0,6 l/m NW 0,00 h 44 W/m 11,0 km/h (2 Bft)
04.09.2011 17:00 19,8 C 93 % 1007,7 hPa 2,4 l/m W-NW 0,00 h 28 W/m 6,8 km/h (2 Bft)
04.09.2011 18:00 19,4 C 97 % 1008,2 hPa 4,8 l/m W-NW 0,00 h 11 W/m 4,3 km/h (1 Bft)
04.09.2011 19:00 18,6 C 97 % 1008,6 hPa 10,8 l/m NW 0,00 h 5 W/m 9,6 km/h (2 Bft)
04.09.2011 20:00 17,5 C 98 % 1009,0 hPa 9,2 l/m N-NW 0,00 h 0 W/m 8,9 km/h (2 Bft)
04.09.2011 21:00 17,5 C 98 % 1009,4 hPa 0,2 l/m NW 0,00 h 0 W/m 4,7 km/h (1 Bft)
04.09.2011 22:00 17,3 C 98 % 1009,5 hPa 0,2 l/m W-NW 0,00 h 0 W/m 9,4 km/h (2 Bft)
04.09.2011 23:00 16,0 C 97 % 1010,1 hPa 3,8 l/m N-NW 0,00 h 0 W/m 9,5 km/h (2 Bft)
Min-Datum _ 29.08.11 30.08.11 04.09.11 - - - - 29.08.11
_ Min-Zeit 06:35 16:40 16:55 - - - - 00:00
Minimum _ 8,1 C 45 % 1007,2 hPa - - - - 0,0 km/h (0 Bft)
Max-Datum _ 03.09.11 04.09.11 29.08.11 04.09.11 - 29.08.11 02.09.11 29.08.11
_ Max-Zeit 16:25 07:30 00:25 19:55 - 06:45 13:20 12:45
Maximum _ 28,4 C 99 % 1016,7 hPa 10,8 l/m - 0,08 h 965 W/m 20,9 km/h
W (4 Bft)
Durchschnitt _ 16,9 C 81 % 1012,3 hPa #34,2 l/m SW #46:50 h 295 W/m 5,0 km/h (1 Bft)